createdAt,value
2022-12-15T12:16:25.698Z,97.01
2022-12-15T12:19:05.559Z,96.83
2022-12-15T12:21:37.892Z,96.23
2022-12-15T12:24:16.775Z,96.25
2022-12-15T12:29:48.638Z,95.59
2022-12-15T12:32:32.652Z,95.57
2022-12-15T12:35:31.089Z,94.60
2022-12-15T12:38:04.985Z,93.99
2022-12-15T12:40:57.959Z,94.71
2022-12-15T12:43:35.524Z,95.03
2022-12-15T12:46:15.694Z,94.62
2022-12-15T12:48:56.473Z,94.44
2022-12-15T12:51:30.910Z,94.26
2022-12-15T12:54:01.347Z,93.76
2022-12-15T12:56:40.462Z,94.39
2022-12-15T12:59:40.180Z,94.05
2022-12-15T13:02:47.858Z,94.32
2022-12-15T13:05:35.784Z,95.26
2022-12-15T13:08:30.619Z,95.07
2022-12-15T13:11:38.483Z,93.79
2022-12-15T13:14:21.015Z,91.85
2022-12-15T13:17:24.894Z,90.55
2022-12-15T13:20:21.687Z,91.14
2022-12-15T13:22:51.754Z,89.75
2022-12-15T13:25:36.404Z,89.60
2022-12-15T13:28:32.868Z,89.31
2022-12-15T13:31:28.516Z,89.27
2022-12-15T13:34:02.399Z,89.53
2022-12-15T13:36:55.628Z,89.42
2022-12-15T13:39:57.560Z,89.99
2022-12-15T13:42:48.236Z,89.81
2022-12-15T13:45:51.277Z,89.15
2022-12-15T13:48:31.869Z,89.47
2022-12-15T13:51:22.999Z,90.17
2022-12-15T13:53:56.401Z,90.74
2022-12-15T13:56:50.756Z,91.05
2022-12-15T13:59:28.071Z,91.75
2022-12-15T14:01:55.892Z,92.03
2022-12-15T14:04:24.183Z,93.41
2022-12-15T14:06:54.764Z,93.28
2022-12-15T14:09:26.912Z,93.67
2022-12-15T14:11:56.663Z,94.30
2022-12-15T14:14:27.745Z,94.94
2022-12-15T14:17:03.815Z,94.82
2022-12-15T14:19:41.006Z,94.88
2022-12-15T14:22:27.595Z,94.92
2022-12-15T14:25:01.604Z,95.13
2022-12-15T14:27:33.470Z,96.57
2022-12-15T14:30:22.912Z,96.27
2022-12-15T14:32:55.606Z,96.23
2022-12-15T14:35:30.528Z,96.08
2022-12-15T14:38:01.897Z,95.48
2022-12-15T14:40:30.855Z,96.29
2022-12-15T14:43:00.590Z,96.45
2022-12-15T14:45:31.241Z,96.17
2022-12-15T14:50:49.712Z,96.77
2022-12-15T14:53:21.449Z,97.36
2022-12-15T14:55:49.648Z,97.44
2022-12-15T14:58:36.408Z,97.94
2022-12-15T15:01:07.259Z,98.19
2022-12-15T15:03:10.726Z,95.90
2022-12-15T15:03:38.318Z,98.41
2022-12-15T15:06:16.674Z,98.81
2022-12-15T15:08:48.159Z,98.55
2022-12-15T15:11:26.922Z,99.25
2022-12-15T15:13:57.857Z,99.56
2022-12-15T15:16:25.877Z,99.10
2022-12-15T15:18:56.119Z,99.03
2022-12-15T15:21:26.089Z,99.84
2022-12-15T15:24:01.593Z,100.00
2022-12-15T15:26:31.019Z,99.96
2022-12-15T15:29:00.455Z,100.00
2022-12-15T15:35:40.742Z,100.00
2022-12-15T15:38:31.060Z,100.00
2022-12-15T15:41:01.082Z,100.00
2022-12-15T15:43:29.609Z,100.00
2022-12-15T15:46:01.787Z,100.00
2022-12-15T15:48:33.110Z,100.00
2022-12-15T15:51:02.163Z,100.00
2022-12-15T15:53:33.001Z,100.00
2022-12-15T15:56:01.720Z,100.00
2022-12-15T15:58:29.984Z,100.00
2022-12-15T16:00:59.407Z,100.00
2022-12-15T16:03:27.372Z,100.00
2022-12-15T16:05:55.318Z,100.00
2022-12-15T16:08:27.444Z,100.00
2022-12-15T16:10:55.899Z,100.00
2022-12-15T16:13:26.324Z,100.00
2022-12-15T16:15:54.683Z,100.00
2022-12-15T16:18:23.870Z,100.00
2022-12-15T16:20:52.699Z,100.00
2022-12-15T16:23:24.090Z,100.00
2022-12-15T16:25:53.807Z,100.00
2022-12-15T16:28:23.637Z,100.00
2022-12-15T16:30:52.007Z,100.00
2022-12-15T16:33:20.247Z,100.00
2022-12-15T16:35:51.236Z,100.00
2022-12-15T16:38:24.165Z,100.00
2022-12-15T16:40:52.807Z,100.00
2022-12-15T16:43:28.899Z,100.00
2022-12-15T16:46:01.206Z,100.00
2022-12-15T16:48:29.459Z,100.00
2022-12-15T16:50:59.844Z,100.00
2022-12-15T16:53:29.931Z,100.00
2022-12-15T16:55:59.678Z,100.00
2022-12-15T16:58:29.623Z,100.00
2022-12-15T17:00:58.393Z,100.00
2022-12-15T17:03:27.685Z,100.00
2022-12-15T17:05:57.327Z,100.00
2022-12-15T17:08:30.345Z,100.00
2022-12-15T17:10:58.543Z,100.00
2022-12-15T17:13:39.105Z,100.00
2022-12-15T17:16:14.212Z,100.00
2022-12-15T17:18:42.989Z,100.00
2022-12-15T17:21:16.318Z,100.00
2022-12-15T17:23:49.237Z,100.00
2022-12-15T17:26:28.552Z,100.00
2022-12-15T17:29:00.922Z,100.00
2022-12-15T17:31:34.800Z,100.00
2022-12-15T17:34:20.866Z,100.00
2022-12-15T17:36:48.872Z,100.00
2022-12-15T17:39:19.928Z,100.00
2022-12-15T17:42:04.342Z,100.00
2022-12-15T17:44:37.294Z,100.00
2022-12-15T17:47:08.867Z,100.00
2022-12-15T17:49:38.287Z,100.00
2022-12-15T17:52:14.149Z,100.00
2022-12-15T17:54:43.339Z,100.00
2022-12-15T17:57:12.393Z,100.00
2022-12-15T17:59:40.298Z,100.00
2022-12-15T18:02:11.899Z,100.00
2022-12-15T18:04:39.997Z,100.00
2022-12-15T18:07:14.909Z,100.00
2022-12-15T18:09:44.093Z,100.00
2022-12-15T18:12:18.825Z,100.00
2022-12-15T18:14:46.665Z,100.00
2022-12-15T18:17:14.801Z,100.00
2022-12-15T18:19:42.527Z,100.00
2022-12-15T18:22:13.526Z,100.00
2022-12-15T18:24:41.380Z,100.00
2022-12-15T18:27:20.699Z,100.00
2022-12-15T18:29:48.413Z,100.00
2022-12-15T18:32:16.906Z,100.00
2022-12-15T18:34:44.970Z,100.00
2022-12-15T18:37:16.526Z,100.00
2022-12-15T18:39:44.278Z,100.00
2022-12-15T18:42:17.848Z,100.00
2022-12-15T18:44:49.947Z,100.00
2022-12-15T18:47:19.619Z,100.00
2022-12-15T18:49:47.507Z,100.00
2022-12-15T18:52:18.724Z,100.00
2022-12-15T18:54:47.864Z,100.00
2022-12-15T18:57:28.424Z,100.00
2022-12-15T18:59:58.887Z,100.00
2022-12-15T19:02:26.783Z,100.00
2022-12-15T19:04:54.771Z,100.00
2022-12-15T19:07:22.677Z,100.00
2022-12-15T19:09:50.802Z,100.00
2022-12-15T19:12:19.108Z,100.00
2022-12-15T19:14:50.132Z,100.00
2022-12-15T19:17:37.011Z,100.00
2022-12-15T19:20:25.710Z,100.00
2022-12-15T19:22:53.767Z,100.00
2022-12-15T19:25:26.268Z,100.00
2022-12-15T19:27:58.766Z,100.00
2022-12-15T19:30:29.753Z,100.00
2022-12-15T19:32:58.212Z,100.00
2022-12-15T19:35:27.327Z,100.00
2022-12-15T19:37:57.862Z,100.00
2022-12-15T19:40:28.349Z,100.00
2022-12-15T19:42:56.311Z,100.00
2022-12-15T19:45:26.121Z,100.00
2022-12-15T19:47:55.502Z,100.00
2022-12-15T19:50:24.573Z,100.00
2022-12-15T19:52:55.857Z,100.00
2022-12-15T19:55:27.946Z,100.00
2022-12-15T19:57:55.788Z,100.00
2022-12-15T20:00:24.796Z,100.00
2022-12-15T20:02:54.845Z,100.00
2022-12-15T20:05:25.601Z,100.00
2022-12-15T20:07:54.653Z,100.00
2022-12-15T20:10:29.464Z,100.00
2022-12-15T20:12:59.662Z,100.00
2022-12-15T20:15:27.431Z,100.00
2022-12-15T20:17:56.895Z,100.00
2022-12-15T20:20:37.911Z,100.00
2022-12-15T20:23:11.941Z,100.00
2022-12-15T20:25:41.338Z,100.00
2022-12-15T20:28:15.778Z,100.00
2022-12-15T20:30:44.098Z,100.00
2022-12-15T20:33:13.113Z,100.00
2022-12-15T20:35:43.177Z,100.00
2022-12-15T20:38:24.867Z,100.00
2022-12-15T20:40:52.839Z,100.00
2022-12-15T20:43:22.607Z,100.00
2022-12-15T20:46:02.933Z,100.00
2022-12-15T20:48:31.216Z,100.00
2022-12-15T20:51:04.346Z,100.00
2022-12-15T20:53:35.698Z,100.00
2022-12-15T20:56:03.742Z,100.00
2022-12-15T20:58:33.352Z,100.00
2022-12-15T21:01:01.527Z,100.00
2022-12-15T21:03:34.009Z,100.00
2022-12-15T21:06:03.244Z,100.00
2022-12-15T21:08:32.527Z,100.00
2022-12-15T21:11:03.401Z,100.00
2022-12-15T21:13:35.417Z,100.00
2022-12-15T21:16:03.544Z,100.00
2022-12-15T21:21:25.364Z,100.00
2022-12-15T21:23:53.203Z,100.00
2022-12-15T21:26:24.311Z,100.00
2022-12-15T21:28:55.775Z,100.00
2022-12-15T21:31:24.696Z,100.00
2022-12-15T21:33:52.784Z,100.00
2022-12-15T21:36:23.966Z,100.00
2022-12-15T21:38:53.177Z,100.00
2022-12-15T21:41:24.068Z,100.00
2022-12-15T21:43:51.795Z,100.00
2022-12-15T21:49:18.229Z,100.00
2022-12-15T21:51:51.916Z,100.00
2022-12-15T21:54:24.723Z,100.00
2022-12-15T21:56:55.280Z,100.00
2022-12-15T21:59:26.174Z,100.00
2022-12-15T22:01:55.305Z,100.00
2022-12-15T22:04:29.213Z,100.00
2022-12-15T22:06:58.556Z,100.00
2022-12-15T22:09:26.391Z,100.00
2022-12-15T22:11:56.784Z,100.00
2022-12-15T22:14:26.988Z,100.00
2022-12-15T22:16:55.176Z,100.00
2022-12-15T22:19:23.900Z,100.00
2022-12-15T22:21:52.059Z,100.00
2022-12-15T22:24:21.363Z,100.00
2022-12-15T22:26:49.304Z,100.00
2022-12-15T22:29:19.693Z,100.00
2022-12-15T22:31:47.914Z,100.00
2022-12-15T22:34:17.461Z,100.00
2022-12-15T22:36:45.788Z,100.00
2022-12-15T22:39:14.993Z,100.00
2022-12-15T22:41:46.332Z,100.00
2022-12-15T22:44:19.145Z,100.00
2022-12-15T22:46:47.550Z,100.00
2022-12-15T22:49:18.965Z,100.00
2022-12-15T22:51:47.099Z,100.00
2022-12-15T22:54:19.890Z,100.00
2022-12-15T22:56:51.680Z,100.00
2022-12-15T22:59:24.512Z,100.00
2022-12-15T23:01:52.547Z,100.00
2022-12-15T23:04:20.325Z,100.00
2022-12-15T23:06:48.612Z,100.00
2022-12-15T23:09:16.341Z,100.00
2022-12-15T23:11:43.966Z,100.00
2022-12-15T23:14:14.929Z,100.00
2022-12-15T23:16:42.427Z,100.00
2022-12-15T23:19:23.480Z,100.00
2022-12-15T23:21:51.230Z,100.00
2022-12-15T23:24:19.519Z,100.00
2022-12-15T23:26:47.296Z,100.00
2022-12-15T23:29:16.579Z,100.00
2022-12-15T23:31:44.392Z,100.00
2022-12-15T23:34:12.389Z,100.00
2022-12-15T23:36:40.083Z,100.00
2022-12-15T23:39:07.781Z,100.00
2022-12-15T23:41:36.281Z,100.00
2022-12-15T23:44:04.030Z,100.00
2022-12-15T23:46:33.954Z,100.00
2022-12-15T23:49:01.764Z,100.00
2022-12-15T23:51:29.507Z,100.00
2022-12-15T23:53:57.263Z,100.00
2022-12-15T23:56:25.589Z,100.00
2022-12-15T23:58:56.788Z,100.00
